sensor_id;sensor_type;location;lat;lon;timestamp;temperature;humidity
4356;DHT22;64374;51.482;7.408;2023-03-16T00:00:46;9.90;95.50
4356;DHT22;64374;51.482;7.408;2023-03-16T00:03:14;10.00;94.80
4356;DHT22;64374;51.482;7.408;2023-03-16T00:05:50;10.00;94.70
4356;DHT22;64374;51.482;7.408;2023-03-16T00:08:18;10.00;95.00
4356;DHT22;64374;51.482;7.408;2023-03-16T00:10:52;9.80;95.20
4356;DHT22;64374;51.482;7.408;2023-03-16T00:13:23;9.90;95.30
4356;DHT22;64374;51.482;7.408;2023-03-16T00:15:53;9.80;95.50
4356;DHT22;64374;51.482;7.408;2023-03-16T00:18:24;9.80;95.80
4356;DHT22;64374;51.482;7.408;2023-03-16T00:21:00;9.90;96.00
4356;DHT22;64374;51.482;7.408;2023-03-16T00:23:29;9.90;95.70
4356;DHT22;64374;51.482;7.408;2023-03-16T00:26:03;10.00;95.30
4356;DHT22;64374;51.482;7.408;2023-03-16T00:28:34;10.10;95.50
4356;DHT22;64374;51.482;7.408;2023-03-16T00:31:05;10.30;95.30
4356;DHT22;64374;51.482;7.408;2023-03-16T00:33:35;9.80;95.80
4356;DHT22;64374;51.482;7.408;2023-03-16T00:36:05;9.90;95.90
4356;DHT22;64374;51.482;7.408;2023-03-16T00:38:37;10.00;95.20
4356;DHT22;64374;51.482;7.408;2023-03-16T00:41:07;10.00;95.50
4356;DHT22;64374;51.482;7.408;2023-03-16T00:43:37;10.00;95.60
4356;DHT22;64374;51.482;7.408;2023-03-16T00:46:13;10.00;95.80
4356;DHT22;64374;51.482;7.408;2023-03-16T00:48:43;10.20;95.90
4356;DHT22;64374;51.482;7.408;2023-03-16T00:51:14;10.20;95.80
4356;DHT22;64374;51.482;7.408;2023-03-16T00:53:44;10.10;95.70
4356;DHT22;64374;51.482;7.408;2023-03-16T00:56:15;10.20;95.40
4356;DHT22;64374;51.482;7.408;2023-03-16T00:58:45;9.90;95.70
4356;DHT22;64374;51.482;7.408;2023-03-16T01:01:15;9.60;96.20
4356;DHT22;64374;51.482;7.408;2023-03-16T01:03:45;9.40;96.50
4356;DHT22;64374;51.482;7.408;2023-03-16T01:06:15;9.50;96.70
4356;DHT22;64374;51.482;7.408;2023-03-16T01:08:47;9.40;97.30
4356;DHT22;64374;51.482;7.408;2023-03-16T01:11:17;9.50;97.20
4356;DHT22;64374;51.482;7.408;2023-03-16T01:13:48;9.50;97.00
4356;DHT22;64374;51.482;7.408;2023-03-16T01:16:21;9.70;97.10
4356;DHT22;64374;51.482;7.408;2023-03-16T01:18:50;9.50;97.00
4356;DHT22;64374;51.482;7.408;2023-03-16T01:21:20;9.40;97.10
4356;DHT22;64374;51.482;7.408;2023-03-16T01:23:49;9.40;97.60
4356;DHT22;64374;51.482;7.408;2023-03-16T01:26:21;9.50;97.60
4356;DHT22;64374;51.482;7.408;2023-03-16T01:28:52;9.80;97.70
4356;DHT22;64374;51.482;7.408;2023-03-16T01:31:22;9.90;97.40
4356;DHT22;64374;51.482;7.408;2023-03-16T01:33:51;9.80;97.40
4356;DHT22;64374;51.482;7.408;2023-03-16T01:36:23;9.80;97.30
4356;DHT22;64374;51.482;7.408;2023-03-16T01:38:55;9.70;97.60
4356;DHT22;64374;51.482;7.408;2023-03-16T01:41:28;9.90;97.50
4356;DHT22;64374;51.482;7.408;2023-03-16T01:43:58;9.90;97.60
4356;DHT22;64374;51.482;7.408;2023-03-16T01:46:29;9.80;97.50
4356;DHT22;64374;51.482;7.408;2023-03-16T01:49:04;9.60;97.90
4356;DHT22;64374;51.482;7.408;2023-03-16T01:51:40;9.60;98.00
4356;DHT22;64374;51.482;7.408;2023-03-16T01:54:23;9.80;97.80
4356;DHT22;64374;51.482;7.408;2023-03-16T01:56:59;9.80;97.60
4356;DHT22;64374;51.482;7.408;2023-03-16T01:59:34;9.70;97.90
4356;DHT22;64374;51.482;7.408;2023-03-16T02:02:04;9.60;98.00
4356;DHT22;64374;51.482;7.408;2023-03-16T02:04:43;9.60;98.10
4356;DHT22;64374;51.482;7.408;2023-03-16T02:07:18;9.50;98.60
4356;DHT22;64374;51.482;7.408;2023-03-16T02:09:50;9.50;98.50
4356;DHT22;64374;51.482;7.408;2023-03-16T02:12:21;9.60;98.60
4356;DHT22;64374;51.482;7.408;2023-03-16T02:14:54;9.60;98.40
4356;DHT22;64374;51.482;7.408;2023-03-16T02:17:27;9.70;98.20
4356;DHT22;64374;51.482;7.408;2023-03-16T02:20:13;9.70;97.90
4356;DHT22;64374;51.482;7.408;2023-03-16T02:22:48;9.60;98.00
4356;DHT22;64374;51.482;7.408;2023-03-16T02:25:22;9.70;98.00
4356;DHT22;64374;51.482;7.408;2023-03-16T02:27:58;9.60;97.90
4356;DHT22;64374;51.482;7.408;2023-03-16T02:30:31;9.90;97.40
4356;DHT22;64374;51.482;7.408;2023-03-16T02:33:02;9.80;97.70
4356;DHT22;64374;51.482;7.408;2023-03-16T02:35:33;9.70;97.60
4356;DHT22;64374;51.482;7.408;2023-03-16T02:38:02;9.80;97.40
4356;DHT22;64374;51.482;7.408;2023-03-16T02:40:36;9.80;97.60
4356;DHT22;64374;51.482;7.408;2023-03-16T02:43:12;9.80;97.10
4356;DHT22;64374;51.482;7.408;2023-03-16T02:45:54;9.70;97.30
4356;DHT22;64374;51.482;7.408;2023-03-16T02:48:30;9.90;96.90
4356;DHT22;64374;51.482;7.408;2023-03-16T02:51:00;9.70;97.00
4356;DHT22;64374;51.482;7.408;2023-03-16T02:53:28;9.70;96.40
4356;DHT22;64374;51.482;7.408;2023-03-16T02:55:59;9.80;96.40
4356;DHT22;64374;51.482;7.408;2023-03-16T02:58:32;9.80;96.60
4356;DHT22;64374;51.482;7.408;2023-03-16T03:01:06;9.70;96.90
4356;DHT22;64374;51.482;7.408;2023-03-16T03:03:35;9.90;96.70
4356;DHT22;64374;51.482;7.408;2023-03-16T03:06:04;9.70;95.80
4356;DHT22;64374;51.482;7.408;2023-03-16T03:08:35;9.60;96.00
4356;DHT22;64374;51.482;7.408;2023-03-16T03:11:04;9.50;96.30
4356;DHT22;64374;51.482;7.408;2023-03-16T03:13:35;9.60;96.20
4356;DHT22;64374;51.482;7.408;2023-03-16T03:16:11;9.70;96.20
4356;DHT22;64374;51.482;7.408;2023-03-16T03:18:40;9.70;96.00
4356;DHT22;64374;51.482;7.408;2023-03-16T03:21:10;9.70;96.20
4356;DHT22;64374;51.482;7.408;2023-03-16T03:23:39;9.70;96.00
4356;DHT22;64374;51.482;7.408;2023-03-16T03:26:07;9.90;96.00
4356;DHT22;64374;51.482;7.408;2023-03-16T03:28:37;9.90;95.70
4356;DHT22;64374;51.482;7.408;2023-03-16T03:31:05;9.90;95.80
4356;DHT22;64374;51.482;7.408;2023-03-16T03:33:34;10.00;95.70
4356;DHT22;64374;51.482;7.408;2023-03-16T03:36:03;9.80;96.00
4356;DHT22;64374;51.482;7.408;2023-03-16T03:38:35;9.90;95.90
4356;DHT22;64374;51.482;7.408;2023-03-16T03:41:05;9.60;96.30
4356;DHT22;64374;51.482;7.408;2023-03-16T03:43:38;9.80;96.20
4356;DHT22;64374;51.482;7.408;2023-03-16T03:46:13;9.90;95.60
4356;DHT22;64374;51.482;7.408;2023-03-16T03:48:45;10.00;95.30
4356;DHT22;64374;51.482;7.408;2023-03-16T03:51:14;9.90;95.70
4356;DHT22;64374;51.482;7.408;2023-03-16T03:53:55;9.80;95.80
4356;DHT22;64374;51.482;7.408;2023-03-16T03:56:37;9.80;96.00
4356;DHT22;64374;51.482;7.408;2023-03-16T03:59:10;9.70;95.70
4356;DHT22;64374;51.482;7.408;2023-03-16T04:02:00;9.60;96.20
4356;DHT22;64374;51.482;7.408;2023-03-16T04:04:51;9.90;96.00
4356;DHT22;64374;51.482;7.408;2023-03-16T04:07:19;9.70;96.40
4356;DHT22;64374;51.482;7.408;2023-03-16T04:09:50;9.60;96.60
4356;DHT22;64374;51.482;7.408;2023-03-16T04:12:31;9.80;96.40
4356;DHT22;64374;51.482;7.408;2023-03-16T04:14:59;9.80;95.90
4356;DHT22;64374;51.482;7.408;2023-03-16T04:17:33;9.80;96.10
4356;DHT22;64374;51.482;7.408;2023-03-16T04:20:10;9.70;96.20
4356;DHT22;64374;51.482;7.408;2023-03-16T04:22:44;9.60;96.40
4356;DHT22;64374;51.482;7.408;2023-03-16T04:25:17;9.60;96.40
4356;DHT22;64374;51.482;7.408;2023-03-16T04:27:47;9.60;96.40
4356;DHT22;64374;51.482;7.408;2023-03-16T04:30:22;9.60;96.10
4356;DHT22;64374;51.482;7.408;2023-03-16T04:32:55;9.70;96.30
4356;DHT22;64374;51.482;7.408;2023-03-16T04:35:25;9.60;96.10
4356;DHT22;64374;51.482;7.408;2023-03-16T04:37:56;9.10;95.90
4356;DHT22;64374;51.482;7.408;2023-03-16T04:40:34;9.10;96.60
4356;DHT22;64374;51.482;7.408;2023-03-16T04:43:10;9.00;96.50
4356;DHT22;64374;51.482;7.408;2023-03-16T04:45:45;8.90;97.10
4356;DHT22;64374;51.482;7.408;2023-03-16T04:48:13;8.90;97.40
4356;DHT22;64374;51.482;7.408;2023-03-16T04:50:46;9.00;97.40
4356;DHT22;64374;51.482;7.408;2023-03-16T04:53:15;9.00;97.80
4356;DHT22;64374;51.482;7.408;2023-03-16T04:55:46;8.80;97.60
4356;DHT22;64374;51.482;7.408;2023-03-16T04:58:15;8.90;97.80
4356;DHT22;64374;51.482;7.408;2023-03-16T05:00:45;9.10;97.80
4356;DHT22;64374;51.482;7.408;2023-03-16T05:03:22;9.20;97.80
4356;DHT22;64374;51.482;7.408;2023-03-16T05:05:53;9.20;97.80
4356;DHT22;64374;51.482;7.408;2023-03-16T05:08:23;9.30;98.20
4356;DHT22;64374;51.482;7.408;2023-03-16T05:10:55;9.50;97.90
4356;DHT22;64374;51.482;7.408;2023-03-16T05:13:27;9.60;98.00
4356;DHT22;64374;51.482;7.408;2023-03-16T05:15:58;9.60;97.80
4356;DHT22;64374;51.482;7.408;2023-03-16T05:18:32;9.80;97.70
4356;DHT22;64374;51.482;7.408;2023-03-16T05:21:01;9.80;97.60
4356;DHT22;64374;51.482;7.408;2023-03-16T05:23:41;9.60;97.90
4356;DHT22;64374;51.482;7.408;2023-03-16T05:26:10;9.30;98.00
4356;DHT22;64374;51.482;7.408;2023-03-16T05:28:43;9.20;98.40
4356;DHT22;64374;51.482;7.408;2023-03-16T05:31:14;9.20;98.50
4356;DHT22;64374;51.482;7.408;2023-03-16T05:33:48;9.40;98.80
4356;DHT22;64374;51.482;7.408;2023-03-16T05:36:20;9.10;99.10
4356;DHT22;64374;51.482;7.408;2023-03-16T05:38:54;9.20;99.30
4356;DHT22;64374;51.482;7.408;2023-03-16T05:41:30;9.10;99.50
4356;DHT22;64374;51.482;7.408;2023-03-16T05:44:17;9.20;99.60
4356;DHT22;64374;51.482;7.408;2023-03-16T05:47:21;8.90;99.70
4356;DHT22;64374;51.482;7.408;2023-03-16T05:49:54;8.90;99.90
4356;DHT22;64374;51.482;7.408;2023-03-16T05:52:34;8.80;99.90
4356;DHT22;64374;51.482;7.408;2023-03-16T05:55:10;8.50;99.90
4356;DHT22;64374;51.482;7.408;2023-03-16T05:57:39;8.40;99.90
4356;DHT22;64374;51.482;7.408;2023-03-16T06:00:10;8.20;99.90
4356;DHT22;64374;51.482;7.408;2023-03-16T06:02:48;8.30;99.90
4356;DHT22;64374;51.482;7.408;2023-03-16T06:05:20;8.20;99.90
4356;DHT22;64374;51.482;7.408;2023-03-16T06:07:53;7.90;99.90
4356;DHT22;64374;51.482;7.408;2023-03-16T06:10:23;7.80;99.90
4356;DHT22;64374;51.482;7.408;2023-03-16T06:12:53;7.90;99.90
4356;DHT22;64374;51.482;7.408;2023-03-16T06:15:21;7.70;99.90
4356;DHT22;64374;51.482;7.408;2023-03-16T06:17:52;7.70;99.90
4356;DHT22;64374;51.482;7.408;2023-03-16T06:20:21;7.60;99.90
4356;DHT22;64374;51.482;7.408;2023-03-16T06:22:49;7.80;99.90
4356;DHT22;64374;51.482;7.408;2023-03-16T06:25:19;7.80;99.90
4356;DHT22;64374;51.482;7.408;2023-03-16T06:27:49;8.00;99.90
4356;DHT22;64374;51.482;7.408;2023-03-16T06:30:18;8.10;99.90
4356;DHT22;64374;51.482;7.408;2023-03-16T06:32:47;8.10;99.90
4356;DHT22;64374;51.482;7.408;2023-03-16T06:35:17;7.80;99.90
4356;DHT22;64374;51.482;7.408;2023-03-16T06:38:02;8.00;99.90
4356;DHT22;64374;51.482;7.408;2023-03-16T06:40:50;8.20;99.90
4356;DHT22;64374;51.482;7.408;2023-03-16T06:43:20;8.40;99.90
4356;DHT22;64374;51.482;7.408;2023-03-16T06:45:50;8.20;99.90
4356;DHT22;64374;51.482;7.408;2023-03-16T06:48:19;8.40;99.90
4356;DHT22;64374;51.482;7.408;2023-03-16T06:50:48;8.20;99.90
4356;DHT22;64374;51.482;7.408;2023-03-16T06:53:21;8.20;99.90
4356;DHT22;64374;51.482;7.408;2023-03-16T06:55:54;7.90;99.90
4356;DHT22;64374;51.482;7.408;2023-03-16T06:58:25;7.80;99.90
4356;DHT22;64374;51.482;7.408;2023-03-16T07:00:53;7.90;99.90
4356;DHT22;64374;51.482;7.408;2023-03-16T07:03:21;7.60;99.90
4356;DHT22;64374;51.482;7.408;2023-03-16T07:05:55;7.60;99.90
4356;DHT22;64374;51.482;7.408;2023-03-16T07:08:24;7.70;99.90
4356;DHT22;64374;51.482;7.408;2023-03-16T07:10:54;7.60;99.90
4356;DHT22;64374;51.482;7.408;2023-03-16T07:13:22;7.70;99.90
4356;DHT22;64374;51.482;7.408;2023-03-16T07:15:51;7.70;99.90
4356;DHT22;64374;51.482;7.408;2023-03-16T07:18:22;7.40;99.90
4356;DHT22;64374;51.482;7.408;2023-03-16T07:20:53;7.60;99.90
4356;DHT22;64374;51.482;7.408;2023-03-16T07:23:25;7.70;99.90
4356;DHT22;64374;51.482;7.408;2023-03-16T07:26:01;7.80;99.90
4356;DHT22;64374;51.482;7.408;2023-03-16T07:28:32;7.80;99.90
4356;DHT22;64374;51.482;7.408;2023-03-16T07:31:01;7.70;99.90
4356;DHT22;64374;51.482;7.408;2023-03-16T07:33:36;7.90;99.90
4356;DHT22;64374;51.482;7.408;2023-03-16T07:36:08;7.60;99.90
4356;DHT22;64374;51.482;7.408;2023-03-16T07:38:42;7.80;99.90
4356;DHT22;64374;51.482;7.408;2023-03-16T07:41:13;7.30;99.90
4356;DHT22;64374;51.482;7.408;2023-03-16T07:43:42;7.40;99.90
4356;DHT22;64374;51.482;7.408;2023-03-16T07:46:14;7.50;99.90
4356;DHT22;64374;51.482;7.408;2023-03-16T07:48:43;7.90;99.90
4356;DHT22;64374;51.482;7.408;2023-03-16T07:51:13;8.00;99.90
4356;DHT22;64374;51.482;7.408;2023-03-16T07:53:45;8.20;99.90
4356;DHT22;64374;51.482;7.408;2023-03-16T07:56:19;8.10;99.90
4356;DHT22;64374;51.482;7.408;2023-03-16T07:58:52;8.00;99.90
4356;DHT22;64374;51.482;7.408;2023-03-16T08:01:21;8.00;99.90
4356;DHT22;64374;51.482;7.408;2023-03-16T08:03:50;8.00;99.90
4356;DHT22;64374;51.482;7.408;2023-03-16T08:06:19;7.70;99.90
4356;DHT22;64374;51.482;7.408;2023-03-16T08:08:48;7.80;99.90
4356;DHT22;64374;51.482;7.408;2023-03-16T08:11:29;7.70;99.90
4356;DHT22;64374;51.482;7.408;2023-03-16T08:14:01;7.80;99.90
4356;DHT22;64374;51.482;7.408;2023-03-16T08:16:49;7.90;99.90
4356;DHT22;64374;51.482;7.408;2023-03-16T08:19:18;8.10;99.90
4356;DHT22;64374;51.482;7.408;2023-03-16T08:21:48;8.10;99.90
4356;DHT22;64374;51.482;7.408;2023-03-16T08:24:32;8.10;99.90
4356;DHT22;64374;51.482;7.408;2023-03-16T08:27:04;8.30;99.90
4356;DHT22;64374;51.482;7.408;2023-03-16T08:29:37;8.20;99.90
4356;DHT22;64374;51.482;7.408;2023-03-16T08:32:10;8.30;99.90
4356;DHT22;64374;51.482;7.408;2023-03-16T08:34:43;8.00;99.90
4356;DHT22;64374;51.482;7.408;2023-03-16T08:37:12;7.90;99.90
4356;DHT22;64374;51.482;7.408;2023-03-16T08:39:47;8.10;99.90
4356;DHT22;64374;51.482;7.408;2023-03-16T08:42:20;8.00;99.90
4356;DHT22;64374;51.482;7.408;2023-03-16T08:44:54;8.20;99.90
4356;DHT22;64374;51.482;7.408;2023-03-16T08:47:23;8.10;99.90
4356;DHT22;64374;51.482;7.408;2023-03-16T08:49:53;8.00;99.90
4356;DHT22;64374;51.482;7.408;2023-03-16T08:52:21;8.10;99.90
4356;DHT22;64374;51.482;7.408;2023-03-16T08:54:51;8.20;99.90
4356;DHT22;64374;51.482;7.408;2023-03-16T08:57:31;8.30;99.90
4356;DHT22;64374;51.482;7.408;2023-03-16T09:00:00;8.20;99.90
4356;DHT22;64374;51.482;7.408;2023-03-16T09:02:34;8.20;99.90
4356;DHT22;64374;51.482;7.408;2023-03-16T09:05:06;8.30;99.90
4356;DHT22;64374;51.482;7.408;2023-03-16T09:07:35;8.30;99.90
4356;DHT22;64374;51.482;7.408;2023-03-16T09:10:03;8.50;99.90
4356;DHT22;64374;51.482;7.408;2023-03-16T09:12:36;8.50;99.90
4356;DHT22;64374;51.482;7.408;2023-03-16T09:15:07;8.60;99.90
4356;DHT22;64374;51.482;7.408;2023-03-16T09:17:57;8.40;99.90
4356;DHT22;64374;51.482;7.408;2023-03-16T09:20:26;8.40;99.90
4356;DHT22;64374;51.482;7.408;2023-03-16T09:22:58;8.40;99.90
4356;DHT22;64374;51.482;7.408;2023-03-16T09:25:27;8.60;99.90
4356;DHT22;64374;51.482;7.408;2023-03-16T09:27:59;8.70;99.90
4356;DHT22;64374;51.482;7.408;2023-03-16T09:30:29;8.80;99.90
4356;DHT22;64374;51.482;7.408;2023-03-16T09:32:58;8.70;99.90
4356;DHT22;64374;51.482;7.408;2023-03-16T09:35:27;8.70;99.90
4356;DHT22;64374;51.482;7.408;2023-03-16T09:37:57;8.70;99.90
4356;DHT22;64374;51.482;7.408;2023-03-16T09:40:35;8.80;99.90
4356;DHT22;64374;51.482;7.408;2023-03-16T09:43:28;9.20;99.90
4356;DHT22;64374;51.482;7.408;2023-03-16T09:46:04;9.00;99.90
4356;DHT22;64374;51.482;7.408;2023-03-16T09:48:37;9.00;99.90
4356;DHT22;64374;51.482;7.408;2023-03-16T09:51:11;9.00;99.90
4356;DHT22;64374;51.482;7.408;2023-03-16T09:53:42;8.80;99.90
4356;DHT22;64374;51.482;7.408;2023-03-16T09:56:17;8.90;99.90
4356;DHT22;64374;51.482;7.408;2023-03-16T09:58:48;8.90;99.90
4356;DHT22;64374;51.482;7.408;2023-03-16T10:01:25;9.10;99.90
4356;DHT22;64374;51.482;7.408;2023-03-16T10:04:15;9.20;99.90
4356;DHT22;64374;51.482;7.408;2023-03-16T10:06:59;9.40;99.90
4356;DHT22;64374;51.482;7.408;2023-03-16T10:09:32;9.50;99.90
4356;DHT22;64374;51.482;7.408;2023-03-16T10:12:06;9.60;99.90
4356;DHT22;64374;51.482;7.408;2023-03-16T10:14:45;9.60;99.90
4356;DHT22;64374;51.482;7.408;2023-03-16T10:17:17;9.80;99.90
4356;DHT22;64374;51.482;7.408;2023-03-16T10:19:49;9.70;99.90
4356;DHT22;64374;51.482;7.408;2023-03-16T10:22:22;9.70;99.90
4356;DHT22;64374;51.482;7.408;2023-03-16T10:25:03;9.40;99.90
4356;DHT22;64374;51.482;7.408;2023-03-16T10:27:36;9.40;99.90
4356;DHT22;64374;51.482;7.408;2023-03-16T10:30:17;9.70;99.90
4356;DHT22;64374;51.482;7.408;2023-03-16T10:32:47;10.00;99.90
4356;DHT22;64374;51.482;7.408;2023-03-16T10:35:26;10.20;99.90
4356;DHT22;64374;51.482;7.408;2023-03-16T10:37:57;10.20;99.90
4356;DHT22;64374;51.482;7.408;2023-03-16T10:40:30;10.20;99.90
4356;DHT22;64374;51.482;7.408;2023-03-16T10:43:05;10.40;99.90
4356;DHT22;64374;51.482;7.408;2023-03-16T10:45:38;10.70;99.90
4356;DHT22;64374;51.482;7.408;2023-03-16T10:48:11;10.50;99.90
4356;DHT22;64374;51.482;7.408;2023-03-16T10:50:42;10.30;99.90
4356;DHT22;64374;51.482;7.408;2023-03-16T10:53:17;10.20;99.90
4356;DHT22;64374;51.482;7.408;2023-03-16T10:55:47;10.20;99.90
4356;DHT22;64374;51.482;7.408;2023-03-16T10:58:22;10.50;99.90
4356;DHT22;64374;51.482;7.408;2023-03-16T11:00:56;10.70;99.90
4356;DHT22;64374;51.482;7.408;2023-03-16T11:03:28;10.70;99.90
4356;DHT22;64374;51.482;7.408;2023-03-16T11:06:00;10.70;99.90
4356;DHT22;64374;51.482;7.408;2023-03-16T11:08:32;10.70;99.90
4356;DHT22;64374;51.482;7.408;2023-03-16T11:11:09;10.60;99.90
4356;DHT22;64374;51.482;7.408;2023-03-16T11:13:44;10.40;99.90
4356;DHT22;64374;51.482;7.408;2023-03-16T11:16:22;10.40;99.90
4356;DHT22;64374;51.482;7.408;2023-03-16T11:18:54;10.60;99.90
4356;DHT22;64374;51.482;7.408;2023-03-16T11:21:33;10.70;99.90
4356;DHT22;64374;51.482;7.408;2023-03-16T11:24:13;10.70;99.90
4356;DHT22;64374;51.482;7.408;2023-03-16T11:26:48;10.70;99.90
4356;DHT22;64374;51.482;7.408;2023-03-16T11:29:24;10.70;99.90
4356;DHT22;64374;51.482;7.408;2023-03-16T11:32:02;10.70;99.90
4356;DHT22;64374;51.482;7.408;2023-03-16T11:34:32;10.70;99.90
4356;DHT22;64374;51.482;7.408;2023-03-16T11:37:10;10.90;99.90
4356;DHT22;64374;51.482;7.408;2023-03-16T11:39:48;10.70;99.90
4356;DHT22;64374;51.482;7.408;2023-03-16T11:42:28;10.90;99.90
4356;DHT22;64374;51.482;7.408;2023-03-16T11:45:08;10.90;99.90
4356;DHT22;64374;51.482;7.408;2023-03-16T11:48:09;11.20;99.90
4356;DHT22;64374;51.482;7.408;2023-03-16T11:50:52;11.60;99.90
4356;DHT22;64374;51.482;7.408;2023-03-16T11:53:35;12.00;99.90
4356;DHT22;64374;51.482;7.408;2023-03-16T11:56:14;12.10;99.90
4356;DHT22;64374;51.482;7.408;2023-03-16T11:58:54;12.10;99.90
4356;DHT22;64374;51.482;7.408;2023-03-16T12:01:39;12.30;99.90
4356;DHT22;64374;51.482;7.408;2023-03-16T12:04:34;12.50;99.90
4356;DHT22;64374;51.482;7.408;2023-03-16T12:07:24;12.70;99.90
4356;DHT22;64374;51.482;7.408;2023-03-16T12:10:05;12.80;99.90
4356;DHT22;64374;51.482;7.408;2023-03-16T12:12:46;12.90;99.90
4356;DHT22;64374;51.482;7.408;2023-03-16T12:15:22;12.90;99.90
4356;DHT22;64374;51.482;7.408;2023-03-16T12:17:56;12.90;99.90
4356;DHT22;64374;51.482;7.408;2023-03-16T12:20:31;13.00;99.90
4356;DHT22;64374;51.482;7.408;2023-03-16T12:23:05;13.20;99.90
4356;DHT22;64374;51.482;7.408;2023-03-16T12:25:41;13.40;99.90
4356;DHT22;64374;51.482;7.408;2023-03-16T12:28:17;13.30;99.90
4356;DHT22;64374;51.482;7.408;2023-03-16T12:30:53;13.50;99.90
4356;DHT22;64374;51.482;7.408;2023-03-16T12:33:34;13.60;99.90
4356;DHT22;64374;51.482;7.408;2023-03-16T12:36:22;13.40;99.90
4356;DHT22;64374;51.482;7.408;2023-03-16T12:39:01;13.20;99.10
4356;DHT22;64374;51.482;7.408;2023-03-16T12:41:39;13.20;99.90
4356;DHT22;64374;51.482;7.408;2023-03-16T12:44:16;13.40;99.90
4356;DHT22;64374;51.482;7.408;2023-03-16T12:46:51;13.50;99.90
4356;DHT22;64374;51.482;7.408;2023-03-16T12:49:23;13.40;99.40
4356;DHT22;64374;51.482;7.408;2023-03-16T12:52:01;13.30;99.50
4356;DHT22;64374;51.482;7.408;2023-03-16T12:54:31;13.20;99.10
4356;DHT22;64374;51.482;7.408;2023-03-16T12:57:01;13.30;99.10
4356;DHT22;64374;51.482;7.408;2023-03-16T12:59:37;13.30;99.90
4356;DHT22;64374;51.482;7.408;2023-03-16T13:02:13;13.00;99.10
4356;DHT22;64374;51.482;7.408;2023-03-16T13:04:44;12.70;99.90
4356;DHT22;64374;51.482;7.408;2023-03-16T13:07:22;12.70;99.90
4356;DHT22;64374;51.482;7.408;2023-03-16T13:09:53;12.80;99.90
4356;DHT22;64374;51.482;7.408;2023-03-16T13:12:27;12.80;99.90
4356;DHT22;64374;51.482;7.408;2023-03-16T13:14:56;12.70;99.90
4356;DHT22;64374;51.482;7.408;2023-03-16T13:17:28;12.80;99.90
4356;DHT22;64374;51.482;7.408;2023-03-16T13:20:23;12.90;99.90
4356;DHT22;64374;51.482;7.408;2023-03-16T13:23:18;12.80;99.90
4356;DHT22;64374;51.482;7.408;2023-03-16T13:26:00;12.70;99.90
4356;DHT22;64374;51.482;7.408;2023-03-16T13:28:31;12.30;99.90
4356;DHT22;64374;51.482;7.408;2023-03-16T13:31:01;12.00;99.60
4356;DHT22;64374;51.482;7.408;2023-03-16T13:33:34;12.00;99.90
4356;DHT22;64374;51.482;7.408;2023-03-16T13:36:05;12.20;99.90
4356;DHT22;64374;51.482;7.408;2023-03-16T13:38:35;12.50;99.90
4356;DHT22;64374;51.482;7.408;2023-03-16T13:41:08;12.60;99.90
4356;DHT22;64374;51.482;7.408;2023-03-16T13:43:40;12.80;99.90
4356;DHT22;64374;51.482;7.408;2023-03-16T13:46:14;13.10;99.90
4356;DHT22;64374;51.482;7.408;2023-03-16T13:48:43;13.50;99.00
4356;DHT22;64374;51.482;7.408;2023-03-16T13:51:17;13.80;98.00
4356;DHT22;64374;51.482;7.408;2023-03-16T13:53:48;14.00;97.80
4356;DHT22;64374;51.482;7.408;2023-03-16T13:56:21;14.40;97.30
4356;DHT22;64374;51.482;7.408;2023-03-16T13:58:52;14.90;97.40
4356;DHT22;64374;51.482;7.408;2023-03-16T14:01:25;15.70;95.90
4356;DHT22;64374;51.482;7.408;2023-03-16T14:03:55;16.10;94.20
4356;DHT22;64374;51.482;7.408;2023-03-16T14:06:27;16.40;93.50
4356;DHT22;64374;51.482;7.408;2023-03-16T14:09:00;16.80;92.90
4356;DHT22;64374;51.482;7.408;2023-03-16T14:11:30;17.10;91.60
4356;DHT22;64374;51.482;7.408;2023-03-16T14:13:59;17.70;91.10
4356;DHT22;64374;51.482;7.408;2023-03-16T14:16:28;18.30;90.00
4356;DHT22;64374;51.482;7.408;2023-03-16T14:19:01;18.00;85.00
4356;DHT22;64374;51.482;7.408;2023-03-16T14:21:51;17.80;87.00
4356;DHT22;64374;51.482;7.408;2023-03-16T14:24:28;18.00;85.90
4356;DHT22;64374;51.482;7.408;2023-03-16T14:27:18;17.30;84.00
4356;DHT22;64374;51.482;7.408;2023-03-16T14:30:02;17.00;85.40
4356;DHT22;64374;51.482;7.408;2023-03-16T14:32:54;16.70;85.70
4356;DHT22;64374;51.482;7.408;2023-03-16T14:35:29;16.50;86.20
4356;DHT22;64374;51.482;7.408;2023-03-16T14:38:19;16.40;88.20
4356;DHT22;64374;51.482;7.408;2023-03-16T14:40:53;16.60;89.40
4356;DHT22;64374;51.482;7.408;2023-03-16T14:43:28;16.60;89.70
4356;DHT22;64374;51.482;7.408;2023-03-16T14:45:57;16.30;89.60
4356;DHT22;64374;51.482;7.408;2023-03-16T14:48:26;16.20;90.40
4356;DHT22;64374;51.482;7.408;2023-03-16T14:50:59;16.10;90.70
4356;DHT22;64374;51.482;7.408;2023-03-16T14:53:28;16.00;90.80
4356;DHT22;64374;51.482;7.408;2023-03-16T14:55:59;15.60;90.60
4356;DHT22;64374;51.482;7.408;2023-03-16T14:58:28;15.20;91.30
4356;DHT22;64374;51.482;7.408;2023-03-16T15:00:56;15.00;91.70
4356;DHT22;64374;51.482;7.408;2023-03-16T15:03:30;14.90;92.30
4356;DHT22;64374;51.482;7.408;2023-03-16T15:06:00;15.00;92.50
4356;DHT22;64374;51.482;7.408;2023-03-16T15:08:30;14.70;92.20
4356;DHT22;64374;51.482;7.408;2023-03-16T15:11:06;14.80;92.70
4356;DHT22;64374;51.482;7.408;2023-03-16T15:13:35;14.60;92.90
4356;DHT22;64374;51.482;7.408;2023-03-16T15:16:20;14.80;93.40
4356;DHT22;64374;51.482;7.408;2023-03-16T15:18:51;15.10;94.40
4356;DHT22;64374;51.482;7.408;2023-03-16T15:21:21;15.40;97.40
4356;DHT22;64374;51.482;7.408;2023-03-16T15:23:52;15.80;94.70
4356;DHT22;64374;51.482;7.408;2023-03-16T15:26:27;16.20;94.30
4356;DHT22;64374;51.482;7.408;2023-03-16T15:28:57;15.90;92.50
4356;DHT22;64374;51.482;7.408;2023-03-16T15:31:25;15.70;92.60
4356;DHT22;64374;51.482;7.408;2023-03-16T15:33:53;15.50;93.10
4356;DHT22;64374;51.482;7.408;2023-03-16T15:36:43;14.80;93.20
4356;DHT22;64374;51.482;7.408;2023-03-16T15:39:19;15.00;93.70
4356;DHT22;64374;51.482;7.408;2023-03-16T15:41:58;15.10;93.40
4356;DHT22;64374;51.482;7.408;2023-03-16T15:44:28;15.10;93.50
4356;DHT22;64374;51.482;7.408;2023-03-16T15:46:56;15.30;93.60
4356;DHT22;64374;51.482;7.408;2023-03-16T15:49:26;15.20;93.10
4356;DHT22;64374;51.482;7.408;2023-03-16T15:52:04;15.10;93.90
4356;DHT22;64374;51.482;7.408;2023-03-16T15:54:34;15.50;94.00
4356;DHT22;64374;51.482;7.408;2023-03-16T15:57:05;15.60;92.80
4356;DHT22;64374;51.482;7.408;2023-03-16T15:59:36;15.60;93.10
4356;DHT22;64374;51.482;7.408;2023-03-16T16:02:20;15.10;93.10
4356;DHT22;64374;51.482;7.408;2023-03-16T16:04:50;14.90;93.30
4356;DHT22;64374;51.482;7.408;2023-03-16T16:07:19;14.80;93.20
4356;DHT22;64374;51.482;7.408;2023-03-16T16:09:48;14.50;93.50
4356;DHT22;64374;51.482;7.408;2023-03-16T16:12:19;14.30;93.20
4356;DHT22;64374;51.482;7.408;2023-03-16T16:14:55;13.80;92.90
4356;DHT22;64374;51.482;7.408;2023-03-16T16:17:23;13.60;93.90
4356;DHT22;64374;51.482;7.408;2023-03-16T16:20:18;13.50;94.40
4356;DHT22;64374;51.482;7.408;2023-03-16T16:22:48;13.60;94.50
4356;DHT22;64374;51.482;7.408;2023-03-16T16:25:18;13.50;94.70
4356;DHT22;64374;51.482;7.408;2023-03-16T16:27:50;13.60;95.30
4356;DHT22;64374;51.482;7.408;2023-03-16T16:30:23;13.80;95.30
4356;DHT22;64374;51.482;7.408;2023-03-16T16:32:54;13.70;95.20
4356;DHT22;64374;51.482;7.408;2023-03-16T16:35:29;13.50;95.00